Time;durP1;ratioP1;P1;durP2;ratioP2;P2;SDS_P1;SDS_P2;PMS_P1;PMS_P2;Temp;Humidity;BMP_temperature;BMP_pressure;BME280_temperature;BME280_humidity;BME280_pressure;Samples;Min_cycle;Max_cycle;Signal;HPM_P1;HPM_P2
2022/10/26 00:00:47;;;;;;;5.22;2.08;;;13.90;99.90;;;;;;5014873;28;20021;-76
2022/10/26 00:03:13;;;;;;;2.53;1.45;;;13.80;99.90;;;;;;5012681;28;20395;-76
2022/10/26 00:05:39;;;;;;;7.10;1.23;;;13.80;99.90;;;;;;5013553;28;20123;-76
2022/10/26 00:08:06;;;;;;;6.82;1.98;;;13.80;99.90;;;;;;5014631;28;20057;-76
2022/10/26 00:10:37;;;;;;;4.75;1.65;;;13.80;99.90;;;;;;5014624;28;20026;-76
2022/10/26 00:13:04;;;;;;;5.35;1.67;;;13.80;99.90;;;;;;5012643;28;20034;-76
2022/10/26 00:15:30;;;;;;;5.68;1.77;;;13.80;99.90;;;;;;5014451;28;20026;-76
2022/10/26 00:17:56;;;;;;;2.58;1.67;;;13.80;99.90;;;;;;5014156;28;20026;-77
2022/10/26 00:20:22;;;;;;;4.65;1.52;;;13.80;99.90;;;;;;5014319;28;20034;-77
2022/10/26 00:22:48;;;;;;;5.75;1.65;;;13.80;99.90;;;;;;5013699;28;20030;-77
2022/10/26 00:25:14;;;;;;;5.70;1.85;;;13.80;99.90;;;;;;5014520;28;20394;-77
2022/10/26 00:27:39;;;;;;;8.05;2.28;;;13.80;99.90;;;;;;5014312;28;20509;-77
2022/10/26 00:30:06;;;;;;;3.15;1.77;;;13.80;99.90;;;;;;5013151;28;20022;-77
2022/10/26 00:32:33;;;;;;;2.88;1.50;;;13.70;99.90;;;;;;5012114;28;20062;-77
2022/10/26 00:34:59;;;;;;;2.95;1.55;;;13.60;99.90;;;;;;5013045;28;20033;-77
2022/10/26 00:37:25;;;;;;;3.72;1.73;;;13.50;99.90;;;;;;5013966;28;20552;-77
2022/10/26 00:54:46;;;;;;;3.03;1.35;;;13.40;99.90;;;;;;5013211;28;20049;-76
2022/10/26 00:57:14;;;;;;;3.78;1.38;;;13.30;99.90;;;;;;5012536;28;20041;-76
2022/10/26 00:59:41;;;;;;;4.72;2.50;;;13.30;99.90;;;;;;5012474;28;20501;-76
2022/10/26 01:02:07;;;;;;;9.45;2.40;;;13.40;99.90;;;;;;5011832;28;20079;-77
2022/10/26 01:04:34;;;;;;;4.32;1.67;;;13.30;99.90;;;;;;5013212;28;20030;-76
2022/10/26 01:07:02;;;;;;;6.60;2.30;;;13.40;99.90;;;;;;5025117;28;20112;-76
2022/10/26 01:09:28;;;;;;;3.80;1.65;;;13.50;99.90;;;;;;5033410;28;20032;-76
2022/10/26 01:11:54;;;;;;;7.78;3.15;;;13.50;99.90;;;;;;5027658;28;20033;-76
2022/10/26 01:14:21;;;;;;;3.53;1.67;;;13.50;99.90;;;;;;5011241;28;20030;-76
2022/10/26 01:17:14;;;;;;;5.05;1.73;;;13.50;99.90;;;;;;5025326;28;20091;-77
2022/10/26 01:20:25;;;;;;;21.30;2.00;;;13.50;99.90;;;;;;5012253;28;20049;-76
2022/10/26 01:23:15;;;;;;;2.78;1.30;;;13.50;99.90;;;;;;5010838;28;20026;-77
2022/10/26 01:26:02;;;;;;;4.03;1.52;;;13.50;99.90;;;;;;5012172;28;20037;-77
2022/10/26 01:29:25;;;;;;;9.40;1.40;;;13.60;99.90;;;;;;5012822;28;20037;-77
2022/10/26 01:32:07;;;;;;;2.50;1.20;;;13.60;99.90;;;;;;4997925;28;20042;-76
2022/10/26 01:34:43;;;;;;;4.07;1.30;;;13.70;99.90;;;;;;5012313;28;20466;-77
2022/10/26 01:37:21;;;;;;;6.20;1.67;;;13.80;99.90;;;;;;5003267;28;20061;-77
2022/10/26 01:39:54;;;;;;;1.70;1.15;;;13.80;99.90;;;;;;5031359;28;20486;-77
2022/10/26 01:42:22;;;;;;;3.47;1.65;;;13.80;99.90;;;;;;5015131;28;20029;-77
2022/10/26 01:45:02;;;;;;;7.25;1.88;;;13.90;99.90;;;;;;5027897;28;20037;-77
2022/10/26 01:47:30;;;;;;;8.65;1.80;;;13.90;99.90;;;;;;5011224;28;20038;-76
2022/10/26 01:49:58;;;;;;;7.20;1.77;;;13.80;99.90;;;;;;4995155;28;20490;-76
2022/10/26 01:52:24;;;;;;;4.53;1.40;;;13.80;99.90;;;;;;5010093;28;20041;-76
2022/10/26 01:54:50;;;;;;;2.97;1.52;;;13.70;99.90;;;;;;5011128;28;20026;-76
2022/10/26 01:57:20;;;;;;;13.05;1.90;;;13.60;99.90;;;;;;5012250;28;20033;-76
2022/10/26 01:59:51;;;;;;;4.55;1.63;;;13.60;99.90;;;;;;5012495;28;20028;-76
2022/10/26 02:02:36;;;;;;;;;;;13.50;99.90;;;;;;5012109;28;20038;-75
2022/10/26 02:05:53;;;;;;;11.18;2.20;;;13.50;99.90;;;;;;5011630;28;20493;-75
2022/10/26 02:08:50;;;;;;;7.80;2.42;;;13.50;99.90;;;;;;4968512;28;20053;-76
2022/10/26 02:11:38;;;;;;;6.00;1.50;;;13.50;99.90;;;;;;5010926;28;20383;-76
2022/10/26 02:14:35;;;;;;;4.68;1.63;;;13.50;99.90;;;;;;5011132;28;20026;-76
2022/10/26 02:17:13;;;;;;;8.60;1.55;;;13.40;99.90;;;;;;5012297;28;20030;-76
2022/10/26 02:19:56;;;;;;;5.20;1.88;;;13.40;99.90;;;;;;5011942;28;20037;-76
2022/10/26 02:22:36;;;;;;;3.13;1.45;;;13.20;99.90;;;;;;5011015;28;20033;-76
2022/10/26 02:25:08;;;;;;;3.13;1.67;;;13.10;99.90;;;;;;5010675;28;20034;-76
2022/10/26 02:27:40;;;;;;;2.13;1.27;;;13.20;99.90;;;;;;5010621;28;20030;-76
2022/10/26 02:30:08;;;;;;;2.33;1.35;;;13.10;99.90;;;;;;5011983;28;20120;-76
2022/10/26 02:32:37;;;;;;;6.68;1.85;;;13.10;99.90;;;;;;5010818;28;20069;-77
2022/10/26 02:35:05;;;;;;;4.65;1.83;;;13.20;99.90;;;;;;5010519;28;20030;-77
2022/10/26 02:37:34;;;;;;;6.68;2.78;;;13.10;99.90;;;;;;5010558;28;20103;-76
2022/10/26 02:40:08;;;;;;;4.38;1.65;;;13.20;99.90;;;;;;5010479;28;20026;-76
2022/10/26 02:42:34;;;;;;;5.78;1.58;;;13.00;99.90;;;;;;5009657;28;20498;-78
2022/10/26 02:45:08;;;;;;;2.83;1.38;;;13.10;99.90;;;;;;5010359;28;20065;-77
2022/10/26 02:47:34;;;;;;;3.38;1.15;;;13.10;99.90;;;;;;5010561;28;20113;-77
2022/10/26 02:50:00;;;;;;;7.60;2.53;;;13.10;99.90;;;;;;5011504;28;20061;-77
2022/10/26 02:52:53;;;;;;;3.13;1.98;;;13.10;99.90;;;;;;5009215;28;20501;-77
2022/10/26 02:55:32;;;;;;;4.25;2.47;;;13.20;99.90;;;;;;5011323;28;20034;-77
2022/10/26 02:58:08;;;;;;;4.15;1.98;;;13.20;99.90;;;;;;5010190;28;20026;-77
2022/10/26 03:00:34;;;;;;;3.85;1.95;;;13.20;99.90;;;;;;5010316;28;20041;-77
2022/10/26 03:03:02;;;;;;;3.95;1.85;;;13.20;99.90;;;;;;5009234;28;20025;-76
2022/10/26 03:05:31;;;;;;;3.50;1.70;;;13.10;99.90;;;;;;5010160;28;20109;-77
2022/10/26 03:07:58;;;;;;;4.22;2.03;;;13.10;99.90;;;;;;5009963;28;20037;-77
2022/10/26 03:10:25;;;;;;;3.88;1.70;;;13.10;99.90;;;;;;5010228;28;20489;-76
2022/10/26 03:12:51;;;;;;;5.93;2.10;;;13.10;99.90;;;;;;5009161;28;20033;-76
2022/10/26 03:15:16;;;;;;;10.57;2.60;;;13.00;99.90;;;;;;5017847;28;20036;-77
2022/10/26 03:17:42;;;;;;;4.68;2.13;;;13.10;99.90;;;;;;5029586;28;20029;-77
2022/10/26 03:20:09;;;;;;;3.67;1.95;;;13.00;99.90;;;;;;5029380;28;20056;-77
2022/10/26 03:22:35;;;;;;;12.98;2.30;;;13.00;99.90;;;;;;5012432;28;20037;-76
2022/10/26 03:25:01;;;;;;;5.55;3.08;;;13.10;99.90;;;;;;5029863;28;20507;-76
2022/10/26 03:27:26;;;;;;;3.72;2.13;;;13.10;99.90;;;;;;5030785;28;20029;-76
2022/10/26 03:29:53;;;;;;;8.50;2.83;;;13.10;99.90;;;;;;5030732;28;20029;-76
2022/10/26 03:32:19;;;;;;;5.57;2.50;;;13.10;99.90;;;;;;5028716;28;20038;-76
2022/10/26 03:34:44;;;;;;;8.32;3.05;;;13.20;99.90;;;;;;5030646;28;20100;-77
2022/10/26 03:37:10;;;;;;;4.53;1.90;;;13.20;99.90;;;;;;5030817;28;20497;-77
2022/10/26 03:39:36;;;;;;;9.07;2.35;;;13.20;99.90;;;;;;5029258;28;20021;-77
2022/10/26 03:42:02;;;;;;;9.73;2.45;;;13.20;99.90;;;;;;5029162;28;20440;-76
2022/10/26 03:44:28;;;;;;;6.80;2.45;;;13.20;99.90;;;;;;5028618;28;20041;-76
2022/10/26 03:46:53;;;;;;;6.05;2.53;;;13.30;99.90;;;;;;5025058;28;20398;-77
2022/10/26 03:49:19;;;;;;;6.45;2.33;;;13.30;99.90;;;;;;5014912;28;20068;-77
2022/10/26 03:51:45;;;;;;;24.35;3.28;;;13.30;99.90;;;;;;5030547;28;20094;-76
2022/10/26 03:54:10;;;;;;;6.05;2.30;;;13.30;99.90;;;;;;5022341;28;20458;-77
2022/10/26 03:56:36;;;;;;;12.52;2.47;;;13.40;99.90;;;;;;5010666;28;20171;-77
2022/10/26 03:59:02;;;;;;;9.45;2.00;;;13.40;99.90;;;;;;5021393;28;20064;-76
2022/10/26 04:01:27;;;;;;;4.07;2.35;;;13.50;99.90;;;;;;5010094;28;20033;-76
2022/10/26 04:03:53;;;;;;;3.72;1.60;;;13.50;99.90;;;;;;5009644;28;20077;-77
2022/10/26 04:06:19;;;;;;;8.48;2.83;;;13.50;99.90;;;;;;5010198;28;20092;-77
2022/10/26 04:08:44;;;;;;;4.10;2.15;;;13.50;99.90;;;;;;5010575;28;20040;-86
2022/10/26 04:11:10;;;;;;;7.30;2.63;;;13.40;99.90;;;;;;5010079;28;20483;-77
2022/10/26 04:13:36;;;;;;;5.43;2.70;;;13.40;99.90;;;;;;5009050;28;20544;-76
2022/10/26 04:16:02;;;;;;;13.05;2.85;;;13.40;99.90;;;;;;5025132;28;20445;-81
2022/10/26 04:18:27;;;;;;;9.18;2.75;;;13.40;99.90;;;;;;5028568;28;20026;-77
2022/10/26 04:20:53;;;;;;;3.05;1.98;;;13.30;99.90;;;;;;5028831;28;20029;-79
2022/10/26 04:23:19;;;;;;;7.20;1.98;;;13.30;99.90;;;;;;5028898;28;20436;-79
2022/10/26 04:25:46;;;;;;;3.88;2.00;;;13.30;99.90;;;;;;5029799;28;20037;-77
2022/10/26 04:28:12;;;;;;;17.33;6.53;;;13.30;99.90;;;;;;5029958;28;20034;-78
2022/10/26 04:30:39;;;;;;;12.68;4.43;;;13.30;99.90;;;;;;5028172;28;20152;-77
2022/10/26 04:33:06;;;;;;;10.55;3.28;;;13.40;99.90;;;;;;5027637;28;20033;-79
2022/10/26 04:35:31;;;;;;;7.50;4.57;;;13.40;99.90;;;;;;5030445;28;20036;-76
2022/10/26 04:37:59;;;;;;;12.05;2.80;;;13.60;99.90;;;;;;5032128;28;20026;-74
2022/10/26 04:40:26;;;;;;;7.85;3.25;;;13.40;99.90;;;;;;5033453;28;20028;-76
2022/10/26 04:42:52;;;;;;;6.70;3.05;;;13.30;99.90;;;;;;5032131;28;20025;-77
2022/10/26 04:45:17;;;;;;;8.15;2.58;;;13.30;99.90;;;;;;5033333;28;20059;-71
2022/10/26 04:47:43;;;;;;;5.47;3.17;;;13.30;99.90;;;;;;5031533;28;20033;-77
2022/10/26 04:50:11;;;;;;;7.22;2.80;;;13.30;99.90;;;;;;5033164;28;20048;-75
2022/10/26 04:52:37;;;;;;;5.47;3.03;;;13.20;99.90;;;;;;5030677;28;20065;-75
2022/10/26 04:55:05;;;;;;;7.38;2.78;;;13.20;99.90;;;;;;5032764;28;20057;-76
2022/10/26 04:57:34;;;;;;;8.85;2.63;;;13.20;99.90;;;;;;5021803;28;20022;-76
2022/10/26 05:00:01;;;;;;;6.93;2.80;;;13.10;99.90;;;;;;5011423;28;20034;-75
2022/10/26 05:02:28;;;;;;;10.43;2.65;;;13.10;99.90;;;;;;5010668;28;20038;-76
2022/10/26 05:04:53;;;;;;;9.18;2.78;;;13.10;99.90;;;;;;5012648;28;20038;-77
2022/10/26 05:07:19;;;;;;;11.55;2.58;;;13.10;99.90;;;;;;4995431;28;20405;-75
2022/10/26 05:09:45;;;;;;;11.48;2.67;;;13.10;99.90;;;;;;5012846;28;20057;-76
2022/10/26 05:12:11;;;;;;;5.05;2.58;;;13.00;99.90;;;;;;5010961;28;20072;-76
2022/10/26 05:14:37;;;;;;;4.38;2.67;;;13.10;99.90;;;;;;5013799;28;20833;-75
2022/10/26 05:17:03;;;;;;;6.38;2.53;;;13.10;99.90;;;;;;5032012;28;20860;-74
2022/10/26 05:19:28;;;;;;;4.63;2.75;;;13.10;99.90;;;;;;5031114;28;20063;-75
2022/10/26 05:21:54;;;;;;;7.20;2.17;;;13.20;99.90;;;;;;5031145;28;20036;-76
2022/10/26 05:24:19;;;;;;;5.68;2.55;;;13.30;99.90;;;;;;5030651;28;20033;-76
2022/10/26 05:26:45;;;;;;;6.93;2.17;;;13.20;99.90;;;;;;5031085;28;20060;-76
2022/10/26 05:29:11;;;;;;;4.88;2.65;;;13.20;99.90;;;;;;5031979;28;20116;-75
2022/10/26 05:31:36;;;;;;;9.80;2.75;;;13.10;99.90;;;;;;5031860;28;20397;-76
2022/10/26 05:34:02;;;;;;;4.60;2.67;;;13.00;99.90;;;;;;5031320;28;20036;-74
2022/10/26 05:36:28;;;;;;;15.65;6.90;;;12.90;99.90;;;;;;5032130;28;20125;-74
2022/10/26 05:38:57;;;;;;;6.53;2.50;;;13.00;99.90;;;;;;5032169;28;20056;-74
2022/10/26 05:41:24;;;;;;;7.55;3.92;;;13.10;99.90;;;;;;5031822;28;20066;-74
2022/10/26 05:43:49;;;;;;;3.90;2.00;;;13.10;99.90;;;;;;5030905;28;20025;-76
2022/10/26 05:46:15;;;;;;;2.92;1.63;;;13.20;99.90;;;;;;5031491;28;20385;-74
2022/10/26 05:48:41;;;;;;;5.57;1.52;;;13.20;99.90;;;;;;5017337;28;20033;-74
2022/10/26 05:51:07;;;;;;;4.00;1.08;;;13.30;99.90;;;;;;5012070;28;20041;-76
2022/10/26 05:53:33;;;;;;;3.08;0.85;;;13.40;99.90;;;;;;5011237;28;20070;-79
2022/10/26 05:55:59;;;;;;;4.03;1.02;;;13.40;99.90;;;;;;5020798;28;20036;-77
2022/10/26 05:58:25;;;;;;;2.30;1.08;;;13.60;99.90;;;;;;5030161;28;20029;-77
2022/10/26 06:01:15;;;;;;;1.83;0.88;;;13.70;99.90;;;;;;5026212;28;20036;-75
2022/10/26 06:04:01;;;;;;;1.23;0.82;;;13.80;99.90;;;;;;5011122;28;20129;-75
2022/10/26 06:06:45;;;;;;;8.35;1.58;;;13.90;99.90;;;;;;5011898;28;20100;-77
2022/10/26 06:09:12;;;;;;;5.90;1.23;;;13.90;99.90;;;;;;5026641;28;20033;-76
2022/10/26 06:11:38;;;;;;;4.07;0.88;;;14.10;99.90;;;;;;5011711;28;20137;-76
2022/10/26 06:14:06;;;;;;;4.03;1.30;;;14.10;99.90;;;;;;5009976;28;20124;-76
2022/10/26 06:16:41;;;;;;;4.35;1.08;;;14.10;99.90;;;;;;5018760;28;20485;-74
2022/10/26 06:19:25;;;;;;;2.40;1.50;;;14.20;99.90;;;;;;5030344;28;20052;-77
2022/10/26 06:22:31;;;;;;;3.90;1.35;;;14.20;99.90;;;;;;5030132;28;20075;-76
2022/10/26 06:25:44;;;;;;;1.95;0.88;;;14.30;99.90;;;;;;5030553;28;20428;-75
2022/10/26 06:28:20;;;;;;;7.00;1.00;;;14.30;99.90;;;;;;5001008;28;20586;-76
2022/10/26 06:30:46;;;;;;;4.78;1.75;;;14.40;99.90;;;;;;5029759;28;20033;-75
2022/10/26 06:33:13;;;;;;;0.75;0.60;;;14.40;99.90;;;;;;5028958;28;20033;-75
2022/10/26 06:36:02;;;;;;;10.30;0.70;;;14.40;99.90;;;;;;5030265;28;20048;-75
2022/10/26 06:38:31;;;;;;;2.80;0.73;;;14.40;99.90;;;;;;5029925;28;20029;-75
2022/10/26 06:40:58;;;;;;;9.18;0.98;;;14.50;99.90;;;;;;5029753;28;20045;-76
2022/10/26 06:43:28;;;;;;;1.70;0.80;;;14.60;99.90;;;;;;5028653;28;20449;-76
2022/10/26 06:46:28;;;;;;;1.50;0.93;;;14.70;99.90;;;;;;5029712;28;20503;-76
2022/10/26 06:49:13;;;;;;;1.75;1.00;;;14.70;99.90;;;;;;5029852;28;20029;-77
2022/10/26 06:51:56;;;;;;;1.85;0.90;;;14.80;99.90;;;;;;5029364;28;20037;-76
2022/10/26 06:54:30;;;;;;;5.00;1.63;;;14.80;99.90;;;;;;5028902;28;20018;-76
2022/10/26 06:56:56;;;;;;;1.45;0.77;;;14.80;99.90;;;;;;5030574;28;20040;-76
2022/10/26 06:59:38;;;;;;;2.45;1.13;;;14.80;99.90;;;;;;5030519;28;20108;-74
2022/10/26 07:02:04;;;;;;;3.28;1.05;;;14.70;99.90;;;;;;5009426;28;20033;-77
2022/10/26 07:04:30;;;;;;;0.98;0.70;;;14.70;99.90;;;;;;5010315;28;20029;-78
2022/10/26 07:06:56;;;;;;;2.40;1.00;;;14.70;99.90;;;;;;5017504;28;20033;-75
2022/10/26 07:09:22;;;;;;;4.22;1.27;;;14.70;99.90;;;;;;5017302;28;20125;-78
2022/10/26 07:11:48;;;;;;;1.63;1.00;;;14.70;99.90;;;;;;5028936;28;20021;-79
2022/10/26 07:14:13;;;;;;;4.40;1.58;;;14.70;99.90;;;;;;5032061;28;20099;-77
2022/10/26 07:16:39;;;;;;;6.40;1.85;;;14.70;99.90;;;;;;5041649;28;20037;-74
2022/10/26 07:19:05;;;;;;;2.13;1.15;;;14.70;99.90;;;;;;5037323;28;20026;-74
2022/10/26 07:21:31;;;;;;;4.05;0.90;;;14.70;99.90;;;;;;5041954;28;20029;-77
2022/10/26 07:23:56;;;;;;;2.45;1.15;;;14.80;99.90;;;;;;5040327;28;20036;-77
2022/10/26 07:26:24;;;;;;;4.53;1.00;;;14.80;99.90;;;;;;5016789;28;20336;-78
2022/10/26 07:28:51;;;;;;;2.22;1.00;;;14.80;99.90;;;;;;5010791;28;20072;-77
2022/10/26 07:31:16;;;;;;;10.88;1.67;;;14.70;99.90;;;;;;5010690;28;20022;-77
2022/10/26 07:33:44;;;;;;;2.00;1.17;;;14.70;99.90;;;;;;5010467;28;20037;-77
2022/10/26 07:36:10;;;;;;;7.68;1.15;;;14.70;99.90;;;;;;5010775;28;20049;-77
2022/10/26 07:38:38;;;;;;;1.42;0.77;;;14.70;99.90;;;;;;5009994;28;20034;-78
2022/10/26 07:41:05;;;;;;;2.63;1.25;;;14.70;99.90;;;;;;5013807;28;20082;-78
2022/10/26 07:43:30;;;;;;;5.40;1.13;;;14.60;99.90;;;;;;5008817;28;20061;-77
2022/10/26 07:45:56;;;;;;;2.65;1.58;;;14.60;99.90;;;;;;5013239;28;20061;-77
2022/10/26 07:48:22;;;;;;;1.95;1.17;;;14.60;99.90;;;;;;5030383;28;20032;-78
2022/10/26 07:50:48;;;;;;;2.05;1.05;;;14.60;99.90;;;;;;5028721;28;20030;-78
2022/10/26 07:53:13;;;;;;;4.03;2.00;;;14.60;99.90;;;;;;5029439;28;20025;-78
2022/10/26 07:55:39;;;;;;;2.80;1.25;;;14.60;99.90;;;;;;5030416;28;20421;-79
2022/10/26 07:58:05;;;;;;;5.05;1.52;;;14.60;99.90;;;;;;5030290;28;20497;-78
2022/10/26 08:00:31;;;;;;;2.42;1.00;;;14.60;99.90;;;;;;5030300;28;20034;-79
2022/10/26 08:02:57;;;;;;;2.72;1.27;;;14.50;99.90;;;;;;5029431;28;20026;-79
2022/10/26 08:05:22;;;;;;;5.32;1.52;;;14.60;99.90;;;;;;5030496;28;20439;-78
2022/10/26 08:07:48;;;;;;;1.77;1.15;;;14.60;99.90;;;;;;5029983;28;20538;-77
2022/10/26 08:10:14;;;;;;;11.68;1.65;;;14.50;99.90;;;;;;5028178;28;20121;-77
2022/10/26 08:12:42;;;;;;;2.70;0.85;;;14.60;99.90;;;;;;5020150;28;20124;-78
2022/10/26 08:15:09;;;;;;;6.90;1.58;;;14.50;99.90;;;;;;5014082;28;20044;-78
2022/10/26 08:17:35;;;;;;;2.65;1.20;;;14.60;99.90;;;;;;5009278;28;20022;-77
2022/10/26 08:20:01;;;;;;;3.30;1.52;;;14.60;99.90;;;;;;5012587;28;20030;-77
2022/10/26 08:22:30;;;;;;;4.45;1.05;;;14.70;99.90;;;;;;5012191;28;20065;-77
2022/10/26 08:24:56;;;;;;;1.17;0.70;;;14.80;99.90;;;;;;5012977;28;20045;-77
2022/10/26 08:27:22;;;;;;;2.35;1.30;;;14.90;99.90;;;;;;5017964;28;20056;-78
2022/10/26 08:29:48;;;;;;;6.25;1.35;;;14.90;99.90;;;;;;5016196;28;20025;-77
2022/10/26 08:32:13;;;;;;;9.00;1.83;;;15.00;99.90;;;;;;5015164;28;20037;-78
2022/10/26 08:34:42;;;;;;;3.70;1.42;;;15.00;99.90;;;;;;5015857;28;20136;-79
2022/10/26 08:37:08;;;;;;;13.65;1.80;;;15.10;99.90;;;;;;5015535;28;20029;-79
2022/10/26 08:39:33;;;;;;;4.05;0.73;;;15.00;99.90;;;;;;5032310;28;20099;-77
2022/10/26 08:42:37;;;;;;;5.15;1.52;;;15.20;99.90;;;;;;5011342;28;20049;-77
2022/10/26 08:45:21;;;;;;;1.70;1.00;;;15.20;99.90;;;;;;4999017;28;20133;-79
2022/10/26 08:47:54;;;;;;;1.85;0.85;;;15.40;99.90;;;;;;5030182;28;20064;-78
2022/10/26 08:50:41;;;;;;;2.97;0.75;;;15.40;99.90;;;;;;5015937;28;20136;-78
2022/10/26 08:53:28;;;;;;;6.25;1.48;;;15.50;99.90;;;;;;5031262;28;20041;-78
2022/10/26 08:56:02;;;;;;;4.18;1.27;;;15.60;99.90;;;;;;5015545;28;20120;-77
2022/10/26 08:58:39;;;;;;;7.07;1.15;;;15.80;99.90;;;;;;5015893;28;20037;-77
2022/10/26 09:01:07;;;;;;;8.98;1.05;;;16.00;99.90;;;;;;5032030;28;20485;-76
2022/10/26 09:03:33;;;;;;;2.30;1.27;;;16.10;99.90;;;;;;5014258;28;20068;-78
2022/10/26 09:06:45;;;;;;;9.00;1.45;;;16.20;99.90;;;;;;5031852;28;20061;-78
2022/10/26 09:09:27;;;;;;;3.05;1.38;;;16.40;99.90;;;;;;5030149;28;20112;-78
2022/10/26 09:12:21;;;;;;;3.80;1.52;;;16.50;99.90;;;;;;5030135;28;20044;-76
2022/10/26 09:15:39;;;;;;;2.17;1.02;;;16.60;99.90;;;;;;5031355;28;20099;-78
2022/10/26 09:18:29;;;;;;;1.75;0.93;;;17.00;99.90;;;;;;5012264;28;20472;-80
2022/10/26 09:21:22;;;;;;;11.60;1.38;;;17.50;99.90;;;;;;5013133;28;20050;-87
2022/10/26 09:24:14;;;;;;;4.47;1.42;;;17.60;99.90;;;;;;5010487;28;20041;-76
2022/10/26 09:26:54;;;;;;;3.33;1.30;;;17.40;99.90;;;;;;5011817;28;20032;-79
2022/10/26 09:29:33;;;;;;;2.83;1.15;;;17.40;99.90;;;;;;5012016;28;20037;-75
2022/10/26 09:32:02;;;;;;;1.90;1.17;;;17.40;99.90;;;;;;5012843;28;20045;-78
2022/10/26 09:34:44;;;;;;;7.07;1.40;;;17.50;99.90;;;;;;4994925;28;20108;-75
2022/10/26 09:37:31;;;;;;;2.42;1.52;;;17.50;99.90;;;;;;5015204;28;20510;-83
2022/10/26 09:40:28;;;;;;;5.93;1.95;;;17.50;99.90;;;;;;5012153;28;20033;-88
2022/10/26 09:43:25;;;;;;;10.77;2.08;;;17.70;99.90;;;;;;5011877;28;20120;-75
2022/10/26 09:45:52;;;;;;;8.65;2.95;;;18.10;99.90;;;;;;5014988;28;20037;-85
2022/10/26 09:48:47;;;;;;;4.57;1.02;;;18.20;99.90;;;;;;5030824;28;20112;-77
2022/10/26 09:51:15;;;;;;;2.42;1.33;;;18.40;99.90;;;;;;5031761;28;20457;-82
2022/10/26 09:53:41;;;;;;;2.13;1.05;;;19.20;99.90;;;;;;5030178;28;20033;-77
2022/10/26 09:56:10;;;;;;;4.68;1.55;;;19.90;99.90;;;;;;5032423;28;20460;-82
2022/10/26 09:58:51;;;;;;;3.60;0.95;;;20.00;99.90;;;;;;5031059;28;20041;-82
2022/10/26 10:01:26;;;;;;;5.82;1.17;;;19.30;99.90;;;;;;5032682;28;20025;-87
2022/10/26 10:04:18;;;;;;;3.03;1.45;;;18.90;99.90;;;;;;5031724;28;20041;-77
2022/10/26 10:06:47;;;;;;;2.60;1.17;;;18.70;99.90;;;;;;5032635;28;20033;-80
2022/10/26 10:09:22;;;;;;;4.15;1.20;;;18.50;99.90;;;;;;5032346;28;20030;-78
2022/10/26 10:11:55;;;;;;;8.30;1.27;;;18.50;99.90;;;;;;5031954;28;20029;-76
2022/10/26 10:14:53;;;;;;;7.40;0.90;;;18.40;99.90;;;;;;5030352;28;20017;-79
2022/10/26 10:17:21;;;;;;;2.40;1.08;;;18.60;99.90;;;;;;5030700;28;20037;-82
2022/10/26 10:19:48;;;;;;;1.63;1.10;;;18.60;99.90;;;;;;5032257;28;20029;-78
2022/10/26 10:22:13;;;;;;;5.13;1.98;;;18.60;99.90;;;;;;5032442;28;20030;-78
2022/10/26 10:24:55;;;;;;;5.65;1.00;;;18.80;99.90;;;;;;5032085;28;20091;-83
2022/10/26 10:27:22;;;;;;;4.93;1.30;;;18.80;99.90;;;;;;5030665;28;20438;-78
2022/10/26 10:30:26;;;;;;;1.75;0.90;;;19.00;99.90;;;;;;5031291;28;20083;-83
2022/10/26 10:33:10;;;;;;;6.03;1.30;;;19.20;99.90;;;;;;5003382;28;20492;-74
2022/10/26 10:35:39;;;;;;;3.17;1.33;;;19.20;99.90;;;;;;5030410;28;20396;-77
2022/10/26 10:38:05;;;;;;;5.45;1.00;;;19.30;99.90;;;;;;5030195;28;20429;-77
2022/10/26 10:40:31;;;;;;;3.78;1.40;;;19.10;99.90;;;;;;5010011;28;20030;-77
2022/10/26 10:43:13;;;;;;;4.57;1.73;;;19.10;99.90;;;;;;5009385;28;20104;-77
2022/10/26 10:45:39;;;;;;;1.65;0.88;;;19.30;99.90;;;;;;5010534;28;20037;-77
2022/10/26 10:48:11;;;;;;;4.18;1.55;;;19.50;99.90;;;;;;5013583;28;20045;-74
2022/10/26 10:50:58;;;;;;;2.97;1.02;;;19.70;99.90;;;;;;5031113;28;20034;-79
2022/10/26 10:53:37;;;;;;;2.00;0.90;;;19.60;99.90;;;;;;5028908;28;20030;-76
2022/10/26 10:56:40;;;;;;;2.88;1.67;;;19.90;99.90;;;;;;5029697;28;20029;-75
2022/10/26 10:59:44;;;;;;;4.47;0.82;;;20.30;99.90;;;;;;5031110;28;20349;-77
2022/10/26 11:02:31;;;;;;;6.47;1.35;;;21.20;99.90;;;;;;5030124;28;20026;-77
2022/10/26 11:05:18;;;;;;;3.38;1.25;;;21.20;99.90;;;;;;5028536;28;20120;-79
2022/10/26 11:07:56;;;;;;;3.70;1.10;;;21.00;99.90;;;;;;5015727;28;20033;-75
2022/10/26 11:10:26;;;;;;;1.08;0.75;;;21.10;99.90;;;;;;5029886;28;20031;-77
2022/10/26 11:13:01;;;;;;;2.05;1.00;;;21.50;99.90;;;;;;5028809;28;20041;-77
2022/10/26 11:15:33;;;;;;;1.77;0.75;;;22.20;99.90;;;;;;5029855;28;20053;-68
2022/10/26 11:18:27;;;;;;;2.58;0.85;;;22.20;99.90;;;;;;5029356;28;20036;-77
2022/10/26 11:21:17;;;;;;;2.90;0.95;;;21.70;99.90;;;;;;5030902;28;20489;-76
2022/10/26 11:24:11;;;;;;;11.00;1.17;;;21.60;99.90;;;;;;5028697;28;20071;-82
2022/10/26 11:26:54;;;;;;;4.45;2.13;;;20.80;99.90;;;;;;5030939;28;20025;-82
2022/10/26 11:29:46;;;;;;;4.70;1.63;;;20.70;99.90;;;;;;5031406;28;20044;-79
2022/10/26 11:32:41;;;;;;;2.20;1.08;;;20.30;99.90;;;;;;5029721;28;20091;-79
2022/10/26 11:35:15;;;;;;;9.60;1.33;;;20.10;99.90;;;;;;5030142;28;20033;-76
2022/10/26 11:38:03;;;;;;;2.65;1.13;;;20.20;99.90;;;;;;5031330;28;20029;-78
2022/10/26 11:41:24;;;;;;;26.65;1.73;;;20.20;99.90;;;;;;5029954;28;20026;-78
2022/10/26 11:44:10;;;;;;;1.35;0.77;;;20.10;99.90;;;;;;4995056;28;20041;-77
2022/10/26 11:46:55;;;;;;;20.13;1.10;;;20.20;99.90;;;;;;5026646;28;20048;-77
2022/10/26 11:49:42;;;;;;;2.13;1.15;;;20.30;99.90;;;;;;5015352;28;20037;-77
2022/10/26 11:52:21;;;;;;;3.75;1.48;;;20.30;99.90;;;;;;4997882;28;20026;-78
2022/10/26 11:55:03;;;;;;;3.88;0.90;;;20.10;99.90;;;;;;5014881;28;20029;-77
2022/10/26 11:57:33;;;;;;;3.70;1.38;;;20.20;99.90;;;;;;5031447;28;20631;-78
2022/10/26 12:00:12;;;;;;;4.22;1.02;;;19.80;99.90;;;;;;5032839;28;20034;-77
2022/10/26 12:02:41;;;;;;;3.90;1.45;;;19.80;99.90;;;;;;5032036;28;20409;-77
2022/10/26 12:05:19;;;;;;;3.80;1.00;;;19.80;99.90;;;;;;5032763;28;20026;-77
2022/10/26 12:08:01;;;;;;;1.40;0.80;;;19.80;99.90;;;;;;5032113;28;20037;-79
2022/10/26 12:10:32;;;;;;;1.83;0.85;;;19.90;99.90;;;;;;5032519;28;20470;-78
2022/10/26 12:13:18;;;;;;;;;;;20.10;99.90;;;;;;5029919;28;20413;-79
2022/10/26 12:15:57;;;;;;;5.78;1.23;;;19.90;99.90;;;;;;5016684;28;19970;-79
2022/10/26 12:18:49;;;;;;;2.30;1.27;;;20.00;99.90;;;;;;5014609;28;20595;-79
2022/10/26 12:21:16;;;;;;;3.10;1.08;;;20.20;99.90;;;;;;5032119;28;20044;-72
2022/10/26 12:24:23;;;;;;;5.15;1.25;;;20.20;99.90;;;;;;5013403;28;20045;-80
2022/10/26 12:26:57;;;;;;;8.93;1.50;;;20.30;99.90;;;;;;5014159;28;20502;-79
2022/10/26 12:29:43;;;;;;;3.63;1.52;;;20.50;99.90;;;;;;4996517;28;20129;-79
2022/10/26 12:32:34;;;;;;;5.65;1.05;;;20.60;99.90;;;;;;4997270;28;20253;-80
2022/10/26 12:35:23;;;;;;;5.55;1.73;;;20.70;99.90;;;;;;5012760;28;20037;-80
2022/10/26 12:37:49;;;;;;;3.97;1.63;;;20.90;99.90;;;;;;5012956;28;20042;-80
2022/10/26 12:40:30;;;;;;;5.40;1.55;;;22.00;99.90;;;;;;5015542;28;20049;-80
2022/10/26 12:42:57;;;;;;;3.33;0.80;;;22.90;99.90;;;;;;5032876;28;20061;-80
2022/10/26 12:45:23;;;;;;;3.20;1.52;;;22.70;99.90;;;;;;5032212;28;20030;-78
2022/10/26 12:47:59;;;;;;;6.07;1.60;;;23.20;99.90;;;;;;5030870;28;20061;-74
2022/10/26 12:50:25;;;;;;;8.05;1.55;;;24.20;99.90;;;;;;5033387;28;20033;-84
2022/10/26 12:53:09;;;;;;;3.72;1.60;;;24.90;99.90;;;;;;5033017;28;20477;-79
2022/10/26 12:56:08;;;;;;;3.80;1.38;;;25.00;99.90;;;;;;5033377;28;20029;-79
2022/10/26 12:58:51;;;;;;;3.88;0.93;;;24.90;99.90;;;;;;5032279;28;20105;-79
2022/10/26 13:01:35;;;;;;;7.82;1.10;;;23.80;99.90;;;;;;5032072;28;20112;-78
2022/10/26 13:04:58;;;;;;;2.20;0.90;;;23.00;99.90;;;;;;5031872;28;20538;-76
2022/10/26 13:07:32;;;;;;;1.85;0.82;;;23.10;99.90;;;;;;5032813;28;20099;-76
2022/10/26 13:10:25;;;;;;;2.47;0.68;;;22.90;99.90;;;;;;5016228;28;20032;-73
2022/10/26 13:12:55;;;;;;;6.45;2.03;;;23.00;99.90;;;;;;5031855;28;20496;-76
2022/10/26 13:15:29;;;;;;;1.48;1.00;;;22.90;99.90;;;;;;5031599;28;20117;-76
2022/10/26 13:18:08;;;;;;;1.75;0.93;;;23.30;99.90;;;;;;5030140;28;20484;-77
2022/10/26 13:20:36;;;;;;;3.58;0.85;;;23.00;99.90;;;;;;5030144;28;20068;-76
2022/10/26 13:23:15;;;;;;;1.20;0.70;;;22.50;99.90;;;;;;5029702;28;20499;-76
2022/10/26 13:25:41;;;;;;;6.25;0.80;;;22.90;99.90;;;;;;5031651;28;20520;-76
2022/10/26 13:28:38;;;;;;;4.82;1.30;;;22.90;99.90;;;;;;5032937;28;20065;-76
2022/10/26 13:31:31;;;;;;;3.60;1.15;;;22.80;99.90;;;;;;5032816;28;20073;-76
2022/10/26 13:34:14;;;;;;;1.67;0.90;;;23.60;99.90;;;;;;5021509;28;20037;-76
2022/10/26 13:37:03;;;;;;;2.80;0.68;;;24.30;99.90;;;;;;5031520;28;20024;-76